createdAt,value
2024-02-01T00:01:47.816Z,26.302013422818792
2024-02-01T00:06:24.371Z,25.74496644295302
2024-02-01T00:09:45.215Z,25.731543624161073
2024-02-01T00:13:05.697Z,26.026845637583893
2024-02-01T00:16:26.374Z,26.026845637583893
2024-02-01T00:19:46.390Z,25.563758389261746
2024-02-01T00:23:06.284Z,26.953020134228186
2024-02-01T00:26:26.769Z,26.322147651006713
2024-02-01T00:29:46.798Z,24.74496644295302
2024-02-01T00:34:32.462Z,26.677852348993287
2024-02-01T00:37:52.600Z,25.993288590604028
2024-02-01T00:41:12.974Z,25.859060402684563
2024-02-01T00:44:34.329Z,25.65771812080537
2024-02-01T00:54:29.126Z,25.40268456375839
2024-02-01T00:57:49.392Z,23.65771812080537
2024-02-01T01:02:07.549Z,24.758389261744966
2024-02-01T01:05:28.053Z,24.100671140939596
2024-02-01T01:08:48.283Z,23.322147651006713
2024-02-01T01:12:10.167Z,24.993288590604028
2024-02-01T01:15:30.918Z,24.61744966442953
2024-02-01T01:18:51.003Z,23.154362416107382
2024-02-01T01:22:11.242Z,23.798657718120804
2024-02-01T01:25:31.913Z,25.731543624161073
2024-02-01T01:28:52.200Z,23.543624161073826
2024-02-01T01:32:13.884Z,24.328859060402685
2024-02-01T01:41:02.525Z,23.77181208053691
2024-02-01T01:44:23.126Z,23.610738255033556
2024-02-01T01:49:06.044Z,22.959731543624162
2024-02-01T01:52:27.316Z,22.308724832214764
2024-02-01T01:55:47.108Z,21.013422818791945
2024-02-01T01:59:07.190Z,19.677852348993287
2024-02-01T02:02:27.853Z,20.302013422818792
2024-02-01T02:05:47.853Z,19.19463087248322
2024-02-01T02:09:07.907Z,18.107382550335572
2024-02-01T02:12:28.437Z,18.503355704697988
2024-02-01T02:15:48.594Z,18.946308724832214
2024-02-01T02:19:55.867Z,19.583892617449663
2024-02-01T02:23:18.170Z,19.261744966442954
2024-02-01T02:26:39.158Z,20.006711409395972
2024-02-01T02:29:59.189Z,18.033557046979865
2024-02-01T02:33:20.020Z,18.93959731543624
2024-02-01T02:40:24.471Z,18.261744966442954
2024-02-01T02:43:44.840Z,17.48993288590604
2024-02-01T02:47:05.430Z,17.315436241610737
2024-02-01T02:50:26.502Z,16.28187919463087
2024-02-01T02:54:00.455Z,15.496644295302014
2024-02-01T02:57:20.618Z,16.671140939597315
2024-02-01T03:00:41.061Z,13.557046979865772
2024-02-01T03:04:01.803Z,13.234899328859061
2024-02-01T03:07:22.755Z,13.463087248322148
2024-02-01T03:10:42.794Z,13.671140939597315
2024-02-01T03:14:03.095Z,12.483221476510067
2024-02-01T03:17:24.161Z,13.395973154362416
2024-02-01T03:25:31.051Z,12.657718120805368
2024-02-01T03:30:04.117Z,12.100671140939598
2024-02-01T03:33:25.054Z,12.40268456375839
2024-02-01T03:36:44.322Z,11.013422818791947
2024-02-01T03:40:04.476Z,10.912751677852349
2024-02-01T03:43:25.061Z,9.953020134228188
2024-02-01T03:46:45.441Z,10.731543624161073
2024-02-01T03:50:06.076Z,9.845637583892618
2024-02-01T03:54:48.071Z,9.268456375838927
2024-02-01T03:58:08.340Z,8.523489932885907
2024-02-01T04:01:29.334Z,7.8120805369127515
2024-02-01T04:04:49.675Z,6.476510067114094
2024-02-01T04:08:10.400Z,5.87248322147651
2024-02-01T04:11:31.200Z,6.214765100671141
2024-02-01T04:18:01.831Z,4.97986577181208
2024-02-01T04:21:22.957Z,5.006711409395973
2024-02-01T04:24:44.037Z,3.8120805369127515
2024-02-01T04:28:03.913Z,3.7248322147651005
2024-02-01T04:33:41.470Z,4.798657718120805
2024-02-01T04:37:01.600Z,4.100671140939597
2024-02-01T04:40:22.449Z,3.557046979865772
2024-02-01T04:43:42.928Z,3.4832214765100673
2024-02-01T04:47:03.202Z,4.134228187919463
2024-02-01T04:50:24.287Z,4.02013422818792
2024-02-01T04:53:44.583Z,3.2416107382550337
2024-02-01T04:57:04.398Z,4.073825503355705
2024-02-01T05:00:24.659Z,4.006711409395973
2024-02-01T05:03:44.964Z,3.261744966442953
2024-02-01T05:07:05.368Z,3.4630872483221475
2024-02-01T05:10:25.935Z,2.335570469798658
2024-02-01T05:13:46.512Z,3.684563758389262
2024-02-01T05:17:06.777Z,3.791946308724832
2024-02-01T05:20:27.973Z,3.9261744966442955
2024-02-01T05:23:48.513Z,3.422818791946309
2024-02-01T05:27:08.152Z,2.476510067114094
2024-02-01T05:30:28.803Z,3.953020134228188
2024-02-01T05:33:49.269Z,4.174496644295302
2024-02-01T05:37:09.237Z,3.3221476510067114
2024-02-01T05:40:29.700Z,2.563758389261745
2024-02-01T05:43:50.776Z,3.738255033557047
2024-02-01T05:47:11.563Z,3.563758389261745
2024-02-01T05:50:32.215Z,2.9731543624161074
2024-02-01T05:53:52.449Z,4.10738255033557
2024-02-01T05:59:40.478Z,3.8322147651006713
2024-02-01T06:03:00.818Z,3.1073825503355703
2024-02-01T06:08:59.322Z,3.697986577181208
2024-02-01T06:12:20.784Z,3.7986577181208054
2024-02-01T06:15:40.677Z,3.0604026845637584
2024-02-01T06:21:40.410Z,4.281879194630872
2024-02-01T06:25:01.062Z,5.697986577181208
2024-02-01T06:28:21.542Z,3.161073825503356
2024-02-01T06:31:41.689Z,3.046979865771812
2024-02-01T06:35:01.850Z,4.677852348993288
2024-02-01T06:38:23.581Z,3.053691275167785
2024-02-01T06:41:43.271Z,3.221476510067114
2024-02-01T06:45:04.121Z,8.14765100671141
2024-02-01T06:48:24.867Z,7.167785234899329
2024-02-01T06:51:45.397Z,4.516778523489933
2024-02-01T06:57:09.329Z,4.825503355704698
2024-02-01T07:00:30.069Z,7.718120805369128
2024-02-01T07:03:50.490Z,17.416107382550337
2024-02-01T07:07:11.456Z,14.328859060402685
2024-02-01T07:12:23.034Z,3.7583892617449663
2024-02-01T07:16:04.086Z,3.785234899328859
2024-02-01T07:19:24.613Z,2.9865771812080535
2024-02-01T07:25:24.465Z,3.3221476510067114
2024-02-01T07:28:44.427Z,3.3087248322147653
2024-02-01T07:35:04.107Z,3.6912751677852347
2024-02-01T07:39:39.035Z,4.3355704697986575
2024-02-01T07:42:59.293Z,2.9865771812080535
2024-02-01T07:47:55.955Z,3.563758389261745
2024-02-01T07:51:22.235Z,6.154362416107382
2024-02-01T07:54:42.750Z,6.033557046979865
2024-02-01T07:58:03.102Z,3.6375838926174495
2024-02-01T08:01:44.245Z,5.154362416107382
2024-02-01T08:05:06.471Z,4.248322147651007
2024-02-01T08:08:34.976Z,13.100671140939598
2024-02-01T08:14:16.255Z,7.718120805369128
2024-02-01T08:17:38.303Z,5.134228187919463
2024-02-01T08:21:34.290Z,6.738255033557047
2024-02-01T08:24:54.459Z,7.25503355704698
2024-02-01T08:31:28.443Z,4.805369127516778
2024-02-01T08:34:49.754Z,6.25503355704698
2024-02-01T08:38:10.799Z,7.563758389261745
2024-02-01T08:41:32.436Z,6.241610738255034
2024-02-01T08:44:52.606Z,4.7114093959731544
2024-02-01T08:48:13.317Z,4.053691275167785
2024-02-01T08:51:33.845Z,5.369127516778524
2024-02-01T08:54:54.128Z,5.060402684563758
2024-02-01T08:58:15.785Z,4.953020134228188
2024-02-01T09:01:36.760Z,5.651006711409396
2024-02-01T09:04:57.399Z,3.4295302013422817
2024-02-01T09:10:44.790Z,4.281879194630872
2024-02-01T09:16:05.452Z,5.067114093959732
2024-02-01T09:19:26.694Z,5.449664429530201
2024-02-01T09:22:47.384Z,4.74496644295302
2024-02-01T09:26:10.272Z,5.610738255033557
2024-02-01T09:29:31.316Z,5.966442953020135
2024-02-01T09:32:51.451Z,4.97986577181208
2024-02-01T09:36:11.342Z,6.1879194630872485
2024-02-01T09:39:33.634Z,4.389261744966443
2024-02-01T09:42:54.818Z,4.342281879194631
2024-02-01T09:46:15.562Z,6.369127516778524
2024-02-01T09:51:01.579Z,5.4630872483221475
2024-02-01T09:54:22.173Z,4.577181208053691
2024-02-01T09:57:42.872Z,5.630872483221476
2024-02-01T10:01:03.485Z,4.785234899328859
2024-02-01T10:04:24.957Z,6.281879194630872
2024-02-01T10:07:44.827Z,5.416107382550336
2024-02-01T10:11:05.184Z,6.436241610738255
2024-02-01T10:14:26.059Z,6.154362416107382
2024-02-01T10:20:04.806Z,5.684563758389261
2024-02-01T10:23:25.782Z,5.97986577181208
2024-02-01T10:27:27.301Z,5.563758389261745
2024-02-01T10:30:49.887Z,6.2885906040268456
2024-02-01T10:34:12.876Z,4.76510067114094
2024-02-01T10:37:36.063Z,5.523489932885906
2024-02-01T10:40:55.605Z,4.201342281879195
2024-02-01T10:44:16.724Z,3.912751677852349
2024-02-01T10:47:37.829Z,4.845637583892618
2024-02-01T10:50:58.157Z,4.912751677852349
2024-02-01T10:54:18.657Z,4.087248322147651
2024-02-01T10:57:38.281Z,4.563758389261745
2024-02-01T11:00:58.872Z,3.704697986577181
2024-02-01T11:04:19.333Z,3.61744966442953
2024-02-01T11:10:44.512Z,4.147651006711409
2024-02-01T11:14:04.667Z,5.557046979865772
2024-02-01T11:17:25.889Z,4.906040268456376
2024-02-01T11:20:45.953Z,4.23489932885906
2024-02-01T11:24:06.015Z,4.25503355704698
2024-02-01T11:27:26.372Z,3.228187919463087
2024-02-01T11:30:46.279Z,4.604026845637584
2024-02-01T11:34:06.383Z,7.644295302013423
2024-02-01T11:37:29.262Z,3.436241610738255
2024-02-01T11:40:50.719Z,5.302013422818792
2024-02-01T11:44:11.116Z,5.409395973154362
2024-02-01T11:48:29.766Z,3.865771812080537
2024-02-01T11:51:50.196Z,3.879194630872483
2024-02-01T11:55:09.926Z,3.6308724832214767
2024-02-01T11:58:31.024Z,4.563758389261745
2024-02-01T12:01:51.022Z,5.228187919463087
2024-02-01T12:05:11.257Z,3.3624161073825505
2024-02-01T12:08:34.326Z,4.221476510067114
2024-02-01T12:11:55.430Z,2.87248322147651
2024-02-01T12:15:15.628Z,4.3355704697986575
2024-02-01T12:18:35.904Z,2.4966442953020134
2024-02-01T12:21:56.578Z,3.5838926174496644
2024-02-01T12:25:17.475Z,3.1006711409395975
2024-02-01T12:29:38.572Z,2.8120805369127515
2024-02-01T12:32:59.267Z,3.1543624161073827
2024-02-01T12:36:20.221Z,2.8322147651006713
2024-02-01T12:39:40.057Z,3.4161073825503356
2024-02-01T12:43:00.588Z,4.402684563758389
2024-02-01T12:46:44.570Z,3.9932885906040267
2024-02-01T12:50:04.824Z,5.2885906040268456
2024-02-01T12:53:25.944Z,5.328859060402684
2024-02-01T12:56:46.232Z,4.3624161073825505
2024-02-01T13:00:06.196Z,3.8120805369127515
2024-02-01T13:06:09.652Z,4.469798657718121
2024-02-01T13:09:31.361Z,4.154362416107382
2024-02-01T13:12:51.770Z,6.328859060402684
2024-02-01T13:16:11.989Z,5.261744966442953
2024-02-01T13:22:45.147Z,5.959731543624161
2024-02-01T13:26:05.760Z,6.201342281879195
2024-02-01T13:29:27.025Z,4.3624161073825505
2024-02-01T13:38:48.999Z,3.6040268456375837
2024-02-01T13:42:10.030Z,4.684563758389261
2024-02-01T13:45:30.707Z,10.114093959731544
2024-02-01T13:48:51.490Z,7.416107382550336
2024-02-01T13:52:11.985Z,4.966442953020135
2024-02-01T13:57:39.432Z,3.2416107382550337
2024-02-01T14:00:59.888Z,3.6040268456375837
2024-02-01T14:04:21.063Z,4.644295302013423
2024-02-01T14:07:40.957Z,2.865771812080537
2024-02-01T14:11:01.316Z,3.2684563758389262
2024-02-01T14:14:23.332Z,2.1946308724832213
2024-02-01T14:17:43.925Z,2.6778523489932886
2024-02-01T14:21:04.093Z,2.4295302013422817
2024-02-01T14:24:26.118Z,1.174496644295302
2024-02-01T14:27:46.566Z,1.3557046979865772
2024-02-01T14:31:06.432Z,2.2013422818791946
2024-02-01T14:34:27.556Z,2.436241610738255
2024-02-01T14:37:48.504Z,0.9865771812080537
2024-02-01T14:41:08.663Z,2.6241610738255035
2024-02-01T14:44:29.323Z,3.664429530201342
2024-02-01T14:47:49.055Z,6.604026845637584
2024-02-01T14:51:08.890Z,5.2885906040268456
2024-02-01T14:54:29.495Z,7.489932885906041
2024-02-01T14:57:49.580Z,5.201342281879195
2024-02-01T15:03:23.969Z,4.073825503355705
2024-02-01T15:06:44.521Z,4.2885906040268456
2024-02-01T15:10:04.935Z,7.12751677852349
2024-02-01T15:13:26.038Z,6.1879194630872485
2024-02-01T15:16:46.123Z,5.74496644295302
2024-02-01T15:21:34.194Z,5.89261744966443
2024-02-01T15:24:54.629Z,4.348993288590604
2024-02-01T15:32:01.990Z,4.959731543624161
2024-02-01T15:35:23.066Z,3.87248322147651
2024-02-01T15:41:23.957Z,6.825503355704698
2024-02-01T15:44:50.567Z,8.167785234899329
2024-02-01T15:48:27.574Z,4.389261744966443
2024-02-01T15:51:48.863Z,6.409395973154362
2024-02-01T15:55:08.808Z,6.771812080536913
2024-02-01T15:58:30.039Z,4.2885906040268456
2024-02-01T16:01:50.496Z,3.174496644295302
2024-02-01T16:05:10.980Z,3.0671140939597317
2024-02-01T16:08:31.668Z,3.4496644295302015
2024-02-01T16:11:52.083Z,3.5704697986577183
2024-02-01T16:16:31.617Z,3.6375838926174495
2024-02-01T16:19:52.201Z,4.248322147651007
2024-02-01T16:23:12.733Z,4.23489932885906
2024-02-01T16:26:33.520Z,3.4161073825503356
2024-02-01T16:29:54.163Z,2.8322147651006713
2024-02-01T16:33:14.131Z,2.9395973154362416
2024-02-01T16:36:34.441Z,3.6577181208053693
2024-02-01T16:39:54.974Z,4.087248322147651
2024-02-01T16:43:15.390Z,2.785234899328859
2024-02-01T16:46:36.366Z,4.409395973154362
2024-02-01T16:51:20.790Z,3.5167785234899327
2024-02-01T17:03:20.641Z,5.302013422818792
2024-02-01T17:15:30.810Z,7.885906040268456
2024-02-01T17:18:50.510Z,9.63758389261745
2024-02-01T17:22:11.005Z,7.006711409395973
2024-02-01T17:25:31.546Z,6.530201342281879
2024-02-01T17:28:51.632Z,5.275167785234899
2024-02-01T17:43:02.671Z,10.697986577181208
2024-02-01T17:46:24.064Z,7.624161073825503
2024-02-01T17:49:44.494Z,11.691275167785236
2024-02-01T17:58:40.540Z,11.25503355704698
2024-02-01T18:07:57.964Z,14.328859060402685
2024-02-01T18:11:19.003Z,11.006711409395972
2024-02-01T18:14:39.176Z,11.14765100671141
2024-02-01T18:17:59.632Z,9.89261744966443
2024-02-01T18:21:21.925Z,6.194630872483222
2024-02-01T18:24:42.865Z,8.758389261744966
2024-02-01T18:28:04.659Z,6.758389261744966
2024-02-01T18:31:26.154Z,9.604026845637584
2024-02-01T18:34:47.760Z,8.275167785234899
2024-02-01T18:40:43.895Z,6.785234899328859
2024-02-01T18:44:03.951Z,6.281879194630872
2024-02-01T18:49:27.710Z,5.865771812080537
2024-02-01T18:52:49.132Z,6.23489932885906
2024-02-01T18:56:09.625Z,4.973154362416107
2024-02-01T18:59:30.481Z,4.993288590604027
2024-02-01T19:02:50.785Z,4.9865771812080535
2024-02-01T19:06:10.828Z,5.523489932885906
2024-02-01T19:09:31.521Z,5.10738255033557
2024-02-01T19:12:51.775Z,5.1879194630872485
2024-02-01T19:16:11.728Z,6.899328859060403
2024-02-01T19:19:32.767Z,6.181208053691275
2024-02-01T19:22:53.202Z,5.919463087248322
2024-02-01T19:26:34.545Z,7.25503355704698
2024-02-01T19:29:54.875Z,6.221476510067114
2024-02-01T19:33:16.046Z,7.154362416107382
2024-02-01T19:36:36.930Z,7.671140939597316
2024-02-01T19:43:10.780Z,6.053691275167785
2024-02-01T19:46:31.621Z,9.342281879194632
2024-02-01T19:49:51.629Z,12.912751677852349
2024-02-01T19:53:11.685Z,16.57046979865772
2024-02-01T19:56:33.155Z,24.483221476510067
2024-02-01T19:59:53.364Z,21.7248322147651
2024-02-01T20:03:13.806Z,15.275167785234899
2024-02-01T20:06:34.604Z,7.530201342281879
2024-02-01T20:10:11.343Z,8.120805369127517
2024-02-01T20:16:44.410Z,6.791946308724833
2024-02-01T20:20:07.290Z,7.738255033557047
2024-02-01T20:23:30.766Z,6.946308724832215
2024-02-01T20:26:51.701Z,5.758389261744966
2024-02-01T20:30:12.417Z,7.476510067114094
2024-02-01T20:33:32.654Z,7.100671140939597
2024-02-01T20:36:53.300Z,6.563758389261745
2024-02-01T20:40:13.958Z,6.885906040268456
2024-02-01T20:43:34.474Z,6.953020134228188
2024-02-01T20:46:54.401Z,7.073825503355705
2024-02-01T20:50:14.356Z,6.295302013422819
2024-02-01T20:53:34.632Z,5.912751677852349
2024-02-01T20:56:54.716Z,6.033557046979865
2024-02-01T21:00:15.500Z,6.651006711409396
2024-02-01T21:03:36.378Z,6.147651006711409
2024-02-01T21:06:57.298Z,5.651006711409396
2024-02-01T21:10:18.622Z,5.718120805369128
2024-02-01T21:15:06.103Z,6.617449664429531
2024-02-01T21:18:26.872Z,5.704697986577181
2024-02-01T21:21:48.003Z,5.906040268456376
2024-02-01T21:25:07.904Z,6.375838926174497
2024-02-01T21:28:28.746Z,6.489932885906041
2024-02-01T21:32:10.906Z,7.248322147651007
2024-02-01T21:35:33.097Z,6.02013422818792
2024-02-01T21:38:54.033Z,5.973154362416107
2024-02-01T21:42:14.285Z,5.087248322147651
2024-02-01T21:45:35.714Z,5.973154362416107
2024-02-01T21:48:56.103Z,5.0
2024-02-01T21:52:17.448Z,4.818791946308725
2024-02-01T21:55:38.597Z,5.348993288590604
2024-02-01T21:58:58.821Z,5.805369127516778
2024-02-01T22:02:19.530Z,5.496644295302014
2024-02-01T22:05:40.249Z,4.9865771812080535
2024-02-01T22:09:01.025Z,5.684563758389261
2024-02-01T22:12:22.341Z,6.610738255033557
2024-02-01T22:15:43.157Z,6.026845637583893
2024-02-01T22:19:03.454Z,6.912751677852349
2024-02-01T22:22:23.170Z,5.23489932885906
2024-02-01T22:25:43.521Z,5.510067114093959
2024-02-01T22:29:03.068Z,5.12751677852349
2024-02-01T22:32:24.094Z,5.228187919463087
2024-02-01T22:38:38.160Z,5.120805369127517
2024-02-01T22:41:58.439Z,4.422818791946309
2024-02-01T22:45:19.129Z,4.416107382550336
2024-02-01T22:48:40.022Z,4.181208053691275
2024-02-01T22:53:31.544Z,5.76510067114094
2024-02-01T22:56:51.503Z,5.10738255033557
2024-02-01T23:00:11.760Z,4.248322147651007
2024-02-01T23:03:32.805Z,5.006711409395973
2024-02-01T23:06:52.762Z,4.724832214765101
2024-02-01T23:10:12.787Z,4.3355704697986575
2024-02-01T23:13:33.347Z,4.570469798657718
2024-02-01T23:16:52.918Z,4.181208053691275
2024-02-01T23:23:11.871Z,3.7114093959731544
2024-02-01T23:26:49.477Z,3.4563758389261743
2024-02-01T23:30:09.447Z,4.087248322147651
2024-02-01T23:33:30.494Z,2.8456375838926173
2024-02-01T23:36:50.600Z,4.181208053691275
2024-02-01T23:40:10.550Z,3.6375838926174495
2024-02-01T23:43:30.914Z,3.9731543624161074
2024-02-01T23:46:50.954Z,3.5503355704697985
2024-02-01T23:50:11.049Z,3.6040268456375837
2024-02-01T23:53:32.122Z,3.61744966442953
2024-02-01T23:56:52.154Z,4.10738255033557
